Time;durP1;ratioP1;P1;durP2;ratioP2;P2;SDS_P1;SDS_P2;PMS_P1;PMS_P2;Temp;Humidity;BMP_temperature;BMP_pressure;BME280_temperature;BME280_humidity;BME280_pressure;Samples;Min_cycle;Max_cycle;Signal;HPM_P1;HPM_P2
2023/03/27 00:00:15;;;;;;;;;;;;;;;4.36;nan;99617.19;4931341;29;19926;-88
2023/03/27 00:02:59;;;;;;;;;;;;;;;4.57;nan;99624.78;4929050;29;19969;-89
2023/03/27 00:05:44;;;;;;;;;;;;;;;4.38;nan;99624.81;4914343;29;19969;-88
2023/03/27 00:08:30;;;;;;;;;;;;;;;4.56;nan;99632.72;4934524;29;19965;-87
2023/03/27 00:11:16;;;;;;;;;;;;;;;4.37;nan;99631.81;4946461;29;19921;-89
2023/03/27 00:14:00;;;;;;;;;;;;;;;4.31;nan;99634.94;4926974;29;20024;-88
2023/03/27 00:16:45;;;;;;;;;;;;;;;4.33;nan;99635.66;4934597;29;20455;-88
2023/03/27 00:19:28;;;;;;;;;;;;;;;4.36;nan;99630.16;4914347;29;19961;-88
2023/03/27 00:22:13;;;;;;;;;;;;;;;4.34;nan;99631.25;4938274;29;19965;-88
2023/03/27 00:24:57;;;;;;;;;;;;;;;3.97;nan;99640.59;4929574;29;19921;-87
2023/03/27 00:27:41;;;;;;;;;;;;;;;4.24;nan;99645.09;4930497;29;19957;-88
2023/03/27 00:30:27;;;;;;;;;;;;;;;4.23;nan;99645.22;4925486;29;19921;-88
2023/03/27 00:33:11;;;;;;;;;;;;;;;4.32;nan;99653.97;4953247;29;20473;-88
2023/03/27 00:35:55;;;;;;;;;;;;;;;4.25;nan;99653.69;4945991;29;19925;-87
2023/03/27 00:38:40;;;;;;;;;;;;;;;4.08;nan;99658.63;4951426;29;19961;-87
2023/03/27 00:41:24;;;;;;;;;;;;;;;4.03;nan;99647.84;4933016;29;19926;-90
2023/03/27 00:44:30;;;;;;;;;;;;;;;4.00;nan;99661.09;4911199;29;19925;-88
2023/03/27 00:47:13;;;;;;;;;;;;;;;4.04;nan;99659.06;4936760;29;19961;-86
2023/03/27 00:50:00;;;;;;;;;;;;;;;4.06;nan;99654.53;4951443;29;19921;-87
2023/03/27 00:52:46;;;;;;;;;;;;;;;4.08;nan;99657.81;4932877;29;19921;-86
2023/03/27 00:55:32;;;;;;;;;;;;;;;3.95;nan;99658.91;4948061;29;20372;-86
2023/03/27 00:58:18;;;;;;;;;;;;;;;4.00;nan;99655.91;4941528;29;19926;-89
2023/03/27 01:01:02;;;;;;;;;;;;;;;3.87;nan;99656.16;4954119;28;20444;-88
2023/03/27 01:03:47;;;;;;;;;;;;;;;3.82;nan;99664.34;4924102;29;19925;-89
2023/03/27 01:06:31;;;;;;;;;;;;;;;3.68;nan;99675.13;4948527;29;19965;-87
2023/03/27 01:09:15;;;;;;;;;;;;;;;3.49;nan;99678.50;4946383;29;20398;-87
2023/03/27 01:12:09;;;;;;;;;;;;;;;3.49;nan;99665.53;4933930;29;19921;-86
2023/03/27 01:14:53;;;;;;;;;;;;;;;3.56;nan;99671.84;4940362;29;19969;-87
2023/03/27 01:17:56;;;;;;;;;;;;;;;3.40;nan;99677.53;4926404;29;19922;-87
2023/03/27 01:20:57;;;;;;;;;;;;;;;3.39;nan;99688.88;4928704;29;20289;-86
2023/03/27 01:24:00;;;;;;;;;;;;;;;3.34;nan;99686.66;4937559;29;19937;-87
2023/03/27 01:27:15;;;;;;;;;;;;;;;3.48;nan;99676.88;4928103;29;19942;-86
2023/03/27 01:29:58;;;;;;;;;;;;;;;3.60;nan;99668.00;4918492;29;20001;-86
2023/03/27 01:33:01;;;;;;;;;;;;;;;3.61;nan;99663.66;4931512;29;19961;-88
2023/03/27 01:35:54;;;;;;;;;;;;;;;3.56;nan;99672.66;4944246;29;19969;-87
2023/03/27 01:38:57;;;;;;;;;;;;;;;3.69;nan;99679.38;4932759;29;20010;-87
2023/03/27 01:41:47;;;;;;;;;;;;;;;3.79;nan;99685.41;4927703;29;19997;-87
2023/03/27 01:44:39;;;;;;;;;;;;;;;3.78;nan;99693.31;4951848;29;20284;-89
2023/03/27 01:47:33;;;;;;;;;;;;;;;3.88;nan;99698.53;4943149;29;20350;-88
2023/03/27 01:50:20;;;;;;;;;;;;;;;3.71;nan;99706.00;4940917;29;20010;-87
2023/03/27 01:53:07;;;;;;;;;;;;;;;3.83;nan;99707.56;4931270;29;20276;-88
2023/03/27 01:55:57;;;;;;;;;;;;;;;3.91;nan;99713.84;4924294;29;19973;-88
2023/03/27 01:58:45;;;;;;;;;;;;;;;3.96;nan;99717.69;4948922;29;19961;-87
2023/03/27 02:01:37;;;;;;;;;;;;;;;3.77;nan;99728.88;4935052;29;19969;-88
2023/03/27 02:04:29;;;;;;;;;;;;;;;3.93;nan;99706.72;4935969;29;20321;-87
2023/03/27 02:07:17;;;;;;;;;;;;;;;3.98;nan;99709.78;4943838;29;20345;-87
2023/03/27 02:10:04;;;;;;;;;;;;;;;3.88;nan;99720.16;4949878;29;20054;-88
2023/03/27 02:12:51;;;;;;;;;;;;;;;3.95;nan;99720.44;4951120;28;19917;-87
2023/03/27 02:15:39;;;;;;;;;;;;;;;3.94;nan;99719.59;4953026;29;19938;-88
2023/03/27 02:18:27;;;;;;;;;;;;;;;4.11;nan;99728.50;4926795;29;19922;-88
2023/03/27 02:21:12;;;;;;;;;;;;;;;4.10;nan;99728.66;4954904;29;20439;-86
2023/03/27 02:24:00;;;;;;;;;;;;;;;4.09;nan;99722.63;4932302;29;19922;-86
2023/03/27 02:26:48;;;;;;;;;;;;;;;4.00;nan;99720.84;4935397;29;19937;-86
2023/03/27 02:29:50;;;;;;;;;;;;;;;4.16;nan;99719.50;4935517;29;19921;-87
2023/03/27 02:32:47;;;;;;;;;;;;;;;4.11;nan;99720.69;4950835;29;19920;-87
2023/03/27 02:35:31;;;;;;;;;;;;;;;4.00;nan;99719.06;4932238;29;19974;-87
2023/03/27 02:38:29;;;;;;;;;;;;;;;4.16;nan;99722.91;4930085;29;19925;-85
2023/03/27 02:41:14;;;;;;;;;;;;;;;4.26;nan;99728.09;4944928;29;19968;-88
2023/03/27 02:44:17;;;;;;;;;;;;;;;4.37;nan;99725.38;4932810;29;20341;-87
2023/03/27 02:47:07;;;;;;;;;;;;;;;4.42;nan;99720.59;4931730;29;20006;-87
2023/03/27 02:49:53;;;;;;;;;;;;;;;4.36;nan;99715.94;4933893;29;19920;-88
2023/03/27 02:52:46;;;;;;;;;;;;;;;4.34;nan;99717.88;4953534;29;19973;-88
2023/03/27 02:55:36;;;;;;;;;;;;;;;4.31;nan;99715.50;4934619;29;19926;-89
2023/03/27 02:58:25;;;;;;;;;;;;;;;4.27;nan;99734.94;4933833;29;19957;-85
2023/03/27 03:01:12;;;;;;;;;;;;;;;4.16;nan;99748.06;4941592;29;19941;-85
2023/03/27 03:03:59;;;;;;;;;;;;;;;4.04;nan;99744.78;4933263;29;19982;-87
2023/03/27 03:06:43;;;;;;;;;;;;;;;4.12;nan;99747.53;4939966;29;19921;-88
2023/03/27 03:09:29;;;;;;;;;;;;;;;4.08;nan;99749.56;4926030;29;20272;-88
2023/03/27 03:12:13;;;;;;;;;;;;;;;4.01;nan;99756.25;4955056;29;20293;-89
2023/03/27 03:14:57;;;;;;;;;;;;;;;4.05;nan;99762.81;4936162;29;20389;-86
2023/03/27 03:17:41;;;;;;;;;;;;;;;4.08;nan;99756.53;4934338;29;20002;-90
2023/03/27 03:20:28;;;;;;;;;;;;;;;4.18;nan;99759.16;4948849;29;20392;-88
2023/03/27 03:23:12;;;;;;;;;;;;;;;4.22;nan;99757.94;4952368;29;19922;-86
2023/03/27 03:25:56;;;;;;;;;;;;;;;4.19;nan;99763.41;4927766;29;19925;-87
2023/03/27 03:28:40;;;;;;;;;;;;;;;4.26;nan;99759.28;4955155;29;20005;-86
2023/03/27 03:31:24;;;;;;;;;;;;;;;4.14;nan;99769.00;4937147;29;19921;-87
2023/03/27 03:34:09;;;;;;;;;;;;;;;4.08;nan;99767.75;4936119;29;19922;-85
2023/03/27 03:36:54;;;;;;;;;;;;;;;4.22;nan;99778.72;4956354;29;19987;-85
2023/03/27 03:39:38;;;;;;;;;;;;;;;4.31;nan;99769.28;4932698;29;19938;-88
2023/03/27 03:42:22;;;;;;;;;;;;;;;4.28;nan;99776.41;4949896;29;19941;-85
2023/03/27 03:45:06;;;;;;;;;;;;;;;4.22;nan;99763.13;4949903;29;20424;-86
2023/03/27 03:47:50;;;;;;;;;;;;;;;4.27;nan;99772.16;4931245;29;19964;-88
2023/03/27 03:50:34;;;;;;;;;;;;;;;4.29;nan;99777.19;4943022;29;19922;-89
2023/03/27 03:53:19;;;;;;;;;;;;;;;4.25;nan;99773.25;4950563;29;20395;-87
2023/03/27 03:56:04;;;;;;;;;;;;;;;4.33;nan;99769.97;4954316;29;20379;-86
2023/03/27 03:58:48;;;;;;;;;;;;;;;4.26;nan;99773.13;4928597;29;19922;-86
2023/03/27 04:01:32;;;;;;;;;;;;;;;4.19;nan;99763.41;4952557;29;20297;-86
2023/03/27 04:04:16;;;;;;;;;;;;;;;4.31;nan;99764.09;4937126;29;19929;-88
2023/03/27 04:07:00;;;;;;;;;;;;;;;4.14;nan;99766.38;4950288;29;19929;-86
2023/03/27 04:09:44;;;;;;;;;;;;;;;4.26;nan;99765.31;4936547;29;19921;-85
2023/03/27 04:12:28;;;;;;;;;;;;;;;4.22;nan;99763.13;4948844;29;19921;-84
2023/03/27 04:15:12;;;;;;;;;;;;;;;4.28;nan;99779.00;4951173;29;19924;-87
2023/03/27 04:17:56;;;;;;;;;;;;;;;4.19;nan;99781.59;4949069;29;20440;-86
2023/03/27 04:20:40;;;;;;;;;;;;;;;4.20;nan;99797.03;4943352;29;19966;-91
2023/03/27 04:23:32;;;;;;;;;;;;;;;4.29;nan;99790.19;4926053;29;19921;-87
2023/03/27 04:26:16;;;;;;;;;;;;;;;4.29;nan;99796.22;4924906;29;19972;-85
2023/03/27 04:28:59;;;;;;;;;;;;;;;4.26;nan;99791.31;4934678;29;19970;-88
2023/03/27 04:31:45;;;;;;;;;;;;;;;4.26;nan;99796.50;4926941;29;20285;-88
2023/03/27 04:34:29;;;;;;;;;;;;;;;4.24;nan;99793.22;4951545;29;20376;-87
2023/03/27 04:37:13;;;;;;;;;;;;;;;4.28;nan;99801.56;4934864;29;19985;-85
2023/03/27 04:39:59;;;;;;;;;;;;;;;4.34;nan;99814.03;4932846;29;19945;-88
2023/03/27 04:42:43;;;;;;;;;;;;;;;4.26;nan;99812.09;4945710;29;19921;-91
2023/03/27 04:45:27;;;;;;;;;;;;;;;4.29;nan;99811.00;4951893;29;19921;-87
2023/03/27 04:48:11;;;;;;;;;;;;;;;4.33;nan;99801.16;4949658;29;19968;-87
2023/03/27 04:50:56;;;;;;;;;;;;;;;4.34;nan;99805.41;4947972;29;20388;-87
2023/03/27 04:53:41;;;;;;;;;;;;;;;4.35;nan;99813.06;4945341;29;19961;-85
2023/03/27 04:56:25;;;;;;;;;;;;;;;4.33;nan;99820.19;4952904;29;19965;-87
2023/03/27 04:59:09;;;;;;;;;;;;;;;4.31;nan;99819.47;4929984;29;20396;-85
2023/03/27 05:01:53;;;;;;;;;;;;;;;4.31;nan;99819.47;4929800;29;19976;-86
2023/03/27 05:04:37;;;;;;;;;;;;;;;4.35;nan;99826.06;4934496;29;20285;-86
2023/03/27 05:07:21;;;;;;;;;;;;;;;4.14;nan;99836.53;4950366;29;19921;-87
2023/03/27 05:10:05;;;;;;;;;;;;;;;4.23;nan;99832.31;4949465;29;20372;-87
2023/03/27 05:12:51;;;;;;;;;;;;;;;4.23;nan;99827.97;4950654;29;19937;-87
2023/03/27 05:15:35;;;;;;;;;;;;;;;4.18;nan;99834.50;4929237;29;19921;-87
2023/03/27 05:18:19;;;;;;;;;;;;;;;4.23;nan;99832.31;4948772;29;19921;-88
2023/03/27 05:21:03;;;;;;;;;;;;;;;4.16;nan;99846.81;4939073;29;19973;-85
2023/03/27 05:23:47;;;;;;;;;;;;;;;4.10;nan;99846.38;4934150;29;19923;-88
2023/03/27 05:26:32;;;;;;;;;;;;;;;4.10;nan;99846.38;4908076;29;19922;-88
2023/03/27 05:29:16;;;;;;;;;;;;;;;4.19;nan;99843.94;4945677;29;19986;-86
2023/03/27 05:32:24;;;;;;;;;;;;;;;;;;;;;
2023/03/27 05:35:10;;;;;;;;;;;;;;;4.21;nan;99850.63;4942419;29;19997;-86
2023/03/27 05:37:55;;;;;;;;;;;;;;;4.26;nan;99852.84;4932235;29;19921;-90
2023/03/27 05:40:43;;;;;;;;;;;;;;;4.25;nan;99853.81;4929280;29;19966;-88
2023/03/27 05:43:27;;;;;;;;;;;;;;;4.27;nan;99851.88;4952949;29;19925;-87
2023/03/27 05:46:11;;;;;;;;;;;;;;;4.30;nan;99851.63;4943791;29;20284;-86
2023/03/27 05:48:58;;;;;;;;;;;;;;;4.33;nan;99864.38;4932621;29;20428;-87
2023/03/27 05:51:42;;;;;;;;;;;;;;;4.32;nan;99862.69;4950009;29;19922;-86
2023/03/27 05:54:25;;;;;;;;;;;;;;;4.32;nan;99873.09;4954951;29;20031;-87
2023/03/27 05:57:10;;;;;;;;;;;;;;;4.32;nan;99874.88;4954499;29;19970;-88
2023/03/27 05:59:55;;;;;;;;;;;;;;;4.26;nan;99868.44;4956023;29;19921;-87
2023/03/27 06:02:47;;;;;;;;;;;;;;;4.24;nan;99870.34;4937775;29;19921;-86
2023/03/27 06:05:32;;;;;;;;;;;;;;;4.29;nan;99875.97;4952407;29;19921;-88
2023/03/27 06:08:16;;;;;;;;;;;;;;;4.32;nan;99883.50;4936099;29;19925;-89
2023/03/27 06:11:06;;;;;;;;;;;;;;;4.35;nan;99883.25;4954080;29;19930;-89
2023/03/27 06:13:50;;;;;;;;;;;;;;;4.29;nan;99873.38;4937182;29;19969;-87
2023/03/27 06:16:34;;;;;;;;;;;;;;;4.30;nan;99875.00;4938654;29;19922;-85
2023/03/27 06:19:18;;;;;;;;;;;;;;;4.37;nan;99883.94;4933251;29;19914;-86
2023/03/27 06:22:02;;;;;;;;;;;;;;;4.45;nan;99885.03;4930949;29;20010;-88
2023/03/27 06:24:52;;;;;;;;;;;;;;;4.47;nan;99886.56;4943837;29;19972;-90
2023/03/27 06:27:45;;;;;;;;;;;;;;;4.50;nan;99886.28;4942512;29;19929;-91
2023/03/27 06:30:30;;;;;;;;;;;;;;;4.51;nan;99894.91;4952327;29;19985;-89
2023/03/27 06:33:14;;;;;;;;;;;;;;;4.47;nan;99896.13;4957335;29;20001;-89
2023/03/27 06:43:09;;;;;;;;;;;;;;;4.63;nan;99900.81;4947420;29;20403;-86
2023/03/27 06:45:53;;;;;;;;;;;;;;;4.53;nan;99893.00;4931034;29;19984;-86
2023/03/27 06:48:38;;;;;;;;;;;;;;;4.46;nan;99894.47;4951551;29;19924;-86
2023/03/27 06:51:22;;;;;;;;;;;;;;;4.49;nan;99913.25;4930885;29;20395;-85
2023/03/27 06:54:06;;;;;;;;;;;;;;;4.59;nan;99908.06;4950441;29;20411;-85
2023/03/27 06:56:50;;;;;;;;;;;;;;;4.61;nan;99906.16;4930444;29;19922;-86
2023/03/27 06:59:34;;;;;;;;;;;;;;;4.71;nan;99917.38;4931431;29;19969;-85
2023/03/27 07:02:18;;;;;;;;;;;;;;;4.61;nan;99921.75;4933776;29;19929;-85
2023/03/27 07:05:07;;;;;;;;;;;;;;;4.66;nan;99922.16;4949620;29;19965;-86
2023/03/27 07:07:51;;;;;;;;;;;;;;;4.65;nan;99923.13;4932571;29;19925;-86
2023/03/27 07:10:35;;;;;;;;;;;;;;;4.46;nan;99916.13;4931110;29;19949;-85
2023/03/27 07:13:19;;;;;;;;;;;;;;;4.50;nan;99914.06;4924686;29;19922;-85
2023/03/27 07:16:03;;;;;;;;;;;;;;;4.62;nan;99919.97;4928040;29;20465;-85
2023/03/27 07:18:47;;;;;;;;;;;;;;;4.59;nan;99926.28;4944210;29;20376;-85
2023/03/27 07:21:34;;;;;;;;;;;;;;;4.77;nan;99923.81;4941845;29;20396;-86
2023/03/27 07:24:17;;;;;;;;;;;;;;;4.78;nan;99935.06;4929741;29;19921;-85
2023/03/27 07:27:02;;;;;;;;;;;;;;;4.80;nan;99944.34;4934099;29;20272;-87
2023/03/27 07:29:45;;;;;;;;;;;;;;;4.93;nan;99932.88;4929392;29;19921;-86
2023/03/27 07:32:33;;;;;;;;;;;;;;;4.89;nan;99936.72;4944791;29;19966;-86
2023/03/27 07:35:18;;;;;;;;;;;;;;;4.90;nan;99949.56;4948235;29;20371;-87
2023/03/27 07:38:02;;;;;;;;;;;;;;;5.00;nan;99950.44;4935031;29;19921;-84
2023/03/27 07:40:49;;;;;;;;;;;;;;;5.06;nan;99948.22;4930970;29;20411;-87
2023/03/27 07:43:35;;;;;;;;;;;;;;;5.05;nan;99964.81;4953424;29;19961;-87
2023/03/27 07:46:22;;;;;;;;;;;;;;;5.14;nan;99961.41;4932018;29;19921;-86
2023/03/27 07:49:08;;;;;;;;;;;;;;;5.08;nan;99957.56;4943689;29;20283;-85
2023/03/27 07:51:52;;;;;;;;;;;;;;;4.97;nan;99962.88;4946763;29;20038;-86
2023/03/27 07:54:36;;;;;;;;;;;;;;;4.98;nan;99973.16;4929081;29;19929;-85
2023/03/27 07:57:20;;;;;;;;;;;;;;;5.10;nan;99971.25;4933363;29;19922;-86
2023/03/27 08:00:10;;;;;;;;;;;;;;;5.24;nan;99971.81;4943155;29;19981;-84
2023/03/27 08:03:02;;;;;;;;;;;;;;;5.13;nan;99972.78;4928474;29;20001;-85
2023/03/27 08:05:54;;;;;;;;;;;;;;;5.15;nan;99973.47;4944243;29;20288;-86
2023/03/27 08:08:38;;;;;;;;;;;;;;;5.41;nan;99967.69;4931155;29;19921;-85
2023/03/27 08:11:22;;;;;;;;;;;;;;;5.50;nan;99977.31;4925960;29;19922;-82
2023/03/27 08:14:08;;;;;;;;;;;;;;;5.70;nan;99969.47;4946626;29;19925;-82
2023/03/27 08:16:52;;;;;;;;;;;;;;;5.44;nan;99972.63;4924872;29;19965;-82
2023/03/27 08:19:36;;;;;;;;;;;;;;;5.55;nan;99975.09;4944367;29;19926;-82
2023/03/27 08:22:20;;;;;;;;;;;;;;;5.67;nan;99975.75;4948439;29;19941;-83
2023/03/27 08:25:12;;;;;;;;;;;;;;;5.80;nan;99980.69;4924557;29;19922;-85
2023/03/27 08:27:56;;;;;;;;;;;;;;;5.66;nan;99981.09;4928662;29;19920;-83
2023/03/27 08:30:40;;;;;;;;;;;;;;;5.65;nan;99980.28;4949336;29;19969;-83
2023/03/27 08:33:26;;;;;;;;;;;;;;;5.49;nan;99988.66;4947689;29;19921;-82
2023/03/27 08:36:10;;;;;;;;;;;;;;;5.60;nan;99987.72;4945041;29;20017;-90
2023/03/27 08:38:54;;;;;;;;;;;;;;;5.41;nan;99985.91;4949230;29;19929;-87
2023/03/27 08:41:43;;;;;;;;;;;;;;;5.21;nan;99993.72;4935847;29;19977;-87
2023/03/27 08:44:29;;;;;;;;;;;;;;;5.24;nan;99983.03;4945345;29;19921;-88
2023/03/27 08:47:17;;;;;;;;;;;;;;;5.15;nan;99984.66;4945136;29;21469;-88
2023/03/27 08:50:04;;;;;;;;;;;;;;;5.24;nan;99987.44;4946156;29;20555;-88
2023/03/27 08:52:48;;;;;;;;;;;;;;;4.93;nan;99996.16;4946063;29;19922;-89
2023/03/27 08:55:37;;;;;;;;;;;;;;;5.16;nan;99988.09;4950429;29;19925;-87
2023/03/27 08:58:21;;;;;;;;;;;;;;;5.20;nan;99997.28;4925892;29;20416;-87
2023/03/27 09:01:10;;;;;;;;;;;;;;;5.15;nan;100004.69;4943225;29;19956;-88
2023/03/27 09:04:00;;;;;;;;;;;;;;;5.25;nan;100004.69;4930321;29;19922;-87
2023/03/27 09:07:13;;;;;;;;;;;;;;;5.06;nan;100001.13;4934599;29;19917;-87
2023/03/27 09:10:00;;;;;;;;;;;;;;;5.38;nan;100004.44;4897841;29;20052;-87
2023/03/27 09:12:55;;;;;;;;;;;;;;;5.43;nan;100012.63;4943308;29;19966;-88
2023/03/27 09:15:54;;;;;;;;;;;;;;;5.74;nan;100009.91;4941181;29;19922;-89
2023/03/27 09:18:44;;;;;;;;;;;;;;;6.42;nan;100008.94;4944453;29;19933;-88
2023/03/27 09:21:47;;;;;;;;;;;;;;;6.72;nan;99995.75;4931820;29;20284;-87
2023/03/27 09:24:34;;;;;;;;;;;;;;;7.03;nan;100000.66;4929119;29;20369;-88
2023/03/27 09:27:21;;;;;;;;;;;;;;;7.38;nan;99998.22;4942211;29;19961;-87
2023/03/27 09:30:11;;;;;;;;;;;;;;;7.11;nan;100002.53;4945690;29;20001;-86
2023/03/27 09:33:02;;;;;;;;;;;;;;;7.21;nan;99997.25;4918446;29;19942;-86
2023/03/27 09:35:46;;;;;;;;;;;;;;;7.00;nan;100012.22;4942407;29;19972;-88
2023/03/27 09:38:36;;;;;;;;;;;;;;;6.51;nan;100011.66;4939405;29;20406;-88
2023/03/27 09:41:22;;;;;;;;;;;;;;;6.40;nan;100021.28;4937572;29;19925;-86
2023/03/27 09:44:11;;;;;;;;;;;;;;;6.32;nan;100013.38;4936451;29;19921;-87
2023/03/27 09:46:58;;;;;;;;;;;;;;;6.61;nan;100012.41;4930455;29;19938;-87
2023/03/27 09:49:46;;;;;;;;;;;;;;;6.58;nan;100010.09;4938986;29;20435;-86
2023/03/27 09:52:35;;;;;;;;;;;;;;;6.75;nan;100007.69;4925825;29;19965;-87
2023/03/27 09:55:22;;;;;;;;;;;;;;;6.61;nan;100007.19;4927076;29;19925;-86
2023/03/27 09:58:07;;;;;;;;;;;;;;;7.06;nan;99999.53;4944853;29;19929;-86
2023/03/27 10:01:05;;;;;;;;;;;;;;;7.32;nan;100001.44;4921346;29;19969;-87
2023/03/27 10:03:57;;;;;;;;;;;;;;;7.53;nan;100001.09;4941201;29;21540;-89
2023/03/27 10:06:46;;;;;;;;;;;;;;;7.47;nan;100002.53;4933346;29;19962;-86
2023/03/27 10:09:33;;;;;;;;;;;;;;;7.50;nan;99993.56;4938861;29;20017;-86
2023/03/27 10:12:19;;;;;;;;;;;;;;;7.62;nan;99994.16;4924485;29;20013;-86
2023/03/27 10:15:05;;;;;;;;;;;;;;;7.11;nan;99990.28;4939856;29;20412;-86
2023/03/27 10:17:50;;;;;;;;;;;;;;;7.08;nan;99989.78;4928952;29;19929;-86
2023/03/27 10:20:34;;;;;;;;;;;;;;;6.85;nan;100000.63;4927808;29;19925;-85
2023/03/27 10:23:48;;;;;;;;;;;;;;;6.91;nan;99988.78;4938017;29;19978;-86
2023/03/27 10:26:35;;;;;;;;;;;;;;;7.24;nan;99994.34;4922155;29;20281;-85
2023/03/27 10:29:25;;;;;;;;;;;;;;;7.35;nan;99994.09;4930198;29;19925;-85
2023/03/27 10:32:09;;;;;;;;;;;;;;;7.16;nan;99992.47;4923036;28;19966;-86
2023/03/27 10:34:56;;;;;;;;;;;;;;;7.33;nan;99996.03;4930052;29;20275;-85
2023/03/27 10:37:40;;;;;;;;;;;;;;;7.38;nan;99987.75;4950383;29;20322;-84
2023/03/27 10:40:25;;;;;;;;;;;;;;;7.32;nan;99993.59;4938061;29;19969;-85
2023/03/27 10:43:15;;;;;;;;;;;;;;;7.36;nan;99994.94;4945160;29;19921;-84
2023/03/27 10:46:04;;;;;;;;;;;;;;;7.45;nan;100001.84;4943153;29;19922;-85
2023/03/27 10:49:01;;;;;;;;;;;;;;;7.58;nan;99993.66;4929817;29;20305;-85
2023/03/27 10:51:45;;;;;;;;;;;;;;;7.93;nan;99993.72;4930391;29;19921;-84
2023/03/27 10:54:44;;;;;;;;;;;;;;;8.21;nan;99999.63;4945751;29;19925;-85
2023/03/27 10:57:29;;;;;;;;;;;;;;;8.39;nan;100002.16;4924969;29;19942;-85
2023/03/27 11:00:25;;;;;;;;;;;;;;;8.89;nan;99993.69;4946892;29;20404;-86
2023/03/27 11:03:22;;;;;;;;;;;;;;;9.43;nan;99994.09;4934109;29;20340;-87
2023/03/27 11:06:10;;;;;;;;;;;;;;;9.69;nan;99997.56;4946122;29;19957;-87
2023/03/27 11:09:03;;;;;;;;;;;;;;;9.93;nan;99988.84;4930159;29;19936;-89
2023/03/27 11:11:47;;;;;;;;;;;;;;;9.94;nan;99987.03;4940504;29;20755;-87
2023/03/27 11:14:46;;;;;;;;;;;;;;;9.54;nan;99992.97;4930236;29;19965;-87
2023/03/27 11:17:35;;;;;;;;;;;;;;;10.16;nan;99988.13;4932100;29;19921;-87
2023/03/27 11:20:35;;;;;;;;;;;;;;;9.60;nan;99991.50;4948072;29;20281;-87
2023/03/27 11:23:28;;;;;;;;;;;;;;;10.22;nan;99990.06;4933545;29;19921;-88
2023/03/27 11:26:14;;;;;;;;;;;;;;;10.29;nan;99996.28;4929849;29;19941;-88
2023/03/27 11:29:01;;;;;;;;;;;;;;;10.18;nan;99990.56;4940905;29;19922;-85
2023/03/27 11:31:50;;;;;;;;;;;;;;;9.94;nan;99989.66;4929999;29;19921;-85
2023/03/27 11:34:36;;;;;;;;;;;;;;;10.03;nan;99993.91;4943462;29;19921;-84
2023/03/27 11:37:25;;;;;;;;;;;;;;;10.24;nan;99990.72;4949486;29;19943;-84
2023/03/27 11:40:18;;;;;;;;;;;;;;;10.23;nan;99993.53;4933329;29;19991;-85
2023/03/27 11:43:03;;;;;;;;;;;;;;;10.18;nan;99990.56;4946143;29;19922;-86
2023/03/27 11:45:58;;;;;;;;;;;;;;;10.42;nan;99995.78;4930502;29;19969;-86
2023/03/27 11:49:01;;;;;;;;;;;;;;;10.70;nan;99995.34;4932202;29;19974;-85
2023/03/27 11:52:08;;;;;;;;;;;;;;;10.92;nan;99992.94;4927716;29;19934;-87
2023/03/27 11:55:05;;;;;;;;;;;;;;;10.91;nan;99996.53;4927242;29;20293;-87
2023/03/27 11:58:07;;;;;;;;;;;;;;;11.02;nan;99991.91;4940349;29;19953;-87
2023/03/27 12:01:06;;;;;;;;;;;;;;;11.16;nan;99991.13;4940881;29;19961;-86
2023/03/27 12:04:03;;;;;;;;;;;;;;;11.25;nan;99987.47;4926132;29;19921;-85
2023/03/27 12:06:47;;;;;;;;;;;;;;;11.21;nan;99991.44;4935299;29;19961;-88
2023/03/27 12:09:43;;;;;;;;;;;;;;;11.63;nan;99993.75;4927935;29;19929;-86
2023/03/27 12:12:46;;;;;;;;;;;;;;;11.53;nan;99989.53;4927346;29;20395;-87
2023/03/27 12:15:30;;;;;;;;;;;;;;;11.67;nan;99992.41;4929446;29;19985;-85
2023/03/27 12:18:20;;;;;;;;;;;;;;;11.79;nan;99993.59;4927103;29;20001;-86
2023/03/27 12:21:09;;;;;;;;;;;;;;;11.60;nan;99991.47;4931686;29;19926;-85
2023/03/27 12:23:53;;;;;;;;;;;;;;;11.96;nan;99982.91;4949298;29;19969;-85
2023/03/27 12:26:46;;;;;;;;;;;;;;;12.22;nan;99992.22;4935987;29;19965;-87
2023/03/27 12:29:33;;;;;;;;;;;;;;;12.51;nan;99986.13;4941573;29;19998;-88
2023/03/27 12:32:17;;;;;;;;;;;;;;;11.97;nan;99985.38;4939732;29;21202;-85
2023/03/27 12:35:09;;;;;;;;;;;;;;;12.23;nan;99988.59;4942300;29;20325;-87
2023/03/27 12:37:59;;;;;;;;;;;;;;;12.30;nan;99984.22;4948626;29;19922;-86
2023/03/27 12:40:48;;;;;;;;;;;;;;;12.26;nan;99978.50;4947246;29;19969;-86
2023/03/27 12:43:38;;;;;;;;;;;;;;;12.51;nan;99991.38;4945626;29;19921;-86
2023/03/27 12:46:23;;;;;;;;;;;;;;;12.44;nan;99990.47;4947197;29;20053;-87
2023/03/27 12:49:09;;;;;;;;;;;;;;;12.16;nan;99990.28;4943591;29;19921;-87
2023/03/27 12:51:53;;;;;;;;;;;;;;;12.22;nan;99982.50;4925955;29;20314;-86
2023/03/27 12:54:38;;;;;;;;;;;;;;;12.16;nan;99985.03;4944026;29;19941;-86
2023/03/27 12:57:23;;;;;;;;;;;;;;;12.08;nan;99992.03;4946360;28;19925;-89
2023/03/27 13:00:22;;;;;;;;;;;;;;;12.20;nan;99994.22;4946243;29;19965;-87
2023/03/27 13:03:10;;;;;;;;;;;;;;;12.26;nan;99993.50;4951466;29;20276;-87
2023/03/27 13:06:03;;;;;;;;;;;;;;;12.00;nan;99989.47;4926981;29;19961;-88
2023/03/27 13:09:07;;;;;;;;;;;;;;;12.13;nan;99984.41;4940542;29;19977;-87
2023/03/27 13:12:10;;;;;;;;;;;;;;;12.30;nan;99970.25;4933189;29;20420;-86
2023/03/27 13:14:59;;;;;;;;;;;;;;;11.81;nan;99978.47;4950695;29;20004;-87
2023/03/27 13:18:22;;;;;;;;;;;;;;;12.00;nan;99968.41;4930180;29;19964;-87
2023/03/27 13:21:06;;;;;;;;;;;;;;;12.12;nan;99971.44;4852913;29;20015;-88
2023/03/27 13:24:12;;;;;;;;;;;;;;;12.25;nan;99961.06;4856193;29;19950;-86
2023/03/27 13:26:59;;;;;;;;;;;;;;;12.30;nan;99955.25;4935741;29;19961;-88
2023/03/27 13:29:47;;;;;;;;;;;;;;;12.24;nan;99962.06;4935674;29;19965;-86
2023/03/27 13:32:38;;;;;;;;;;;;;;;12.08;nan;99964.88;4948672;29;20388;-86
2023/03/27 13:35:22;;;;;;;;;;;;;;;12.08;nan;99960.44;4928995;29;20359;-87
2023/03/27 13:38:09;;;;;;;;;;;;;;;12.17;nan;99957.72;4944567;29;20454;-86
2023/03/27 13:40:53;;;;;;;;;;;;;;;11.81;nan;99952.16;4950127;29;20284;-86
2023/03/27 13:43:37;;;;;;;;;;;;;;;11.50;nan;99955.72;4951359;29;20363;-87
2023/03/27 13:46:27;;;;;;;;;;;;;;;11.24;nan;99950.84;4951302;29;20372;-86
2023/03/27 13:49:31;;;;;;;;;;;;;;;11.08;nan;99946.53;4948627;29;19922;-85
2023/03/27 13:52:28;;;;;;;;;;;;;;;10.96;nan;99946.13;4928463;29;20009;-87
2023/03/27 13:55:19;;;;;;;;;;;;;;;10.99;nan;99951.03;4940117;29;20380;-87
2023/03/27 13:58:21;;;;;;;;;;;;;;;11.10;nan;99949.78;4942653;29;20277;-87
2023/03/27 14:01:15;;;;;;;;;;;;;;;10.75;nan;99954.59;4943668;29;19972;-87
2023/03/27 14:03:59;;;;;;;;;;;;;;;10.86;nan;99946.34;4931384;29;19922;-88
2023/03/27 14:06:49;;;;;;;;;;;;;;;10.83;nan;99946.69;4927213;29;19921;-87
2023/03/27 14:09:44;;;;;;;;;;;;;;;10.82;nan;99952.94;4935163;29;20321;-86
2023/03/27 14:12:47;;;;;;;;;;;;;;;10.89;nan;99956.50;4928073;29;19921;-88
2023/03/27 14:15:49;;;;;;;;;;;;;;;10.63;nan;99952.38;4930331;29;19937;-86
2023/03/27 14:18:46;;;;;;;;;;;;;;;10.71;nan;99949.72;4933683;29;19921;-86
2023/03/27 14:21:48;;;;;;;;;;;;;;;10.98;nan;99949.38;4949037;29;20292;-87
2023/03/27 14:24:37;;;;;;;;;;;;;;;10.78;nan;99943.75;4947970;29;20293;-86
2023/03/27 14:27:21;;;;;;;;;;;;;;;11.13;nan;99949.44;4947434;29;20009;-87
2023/03/27 14:30:15;;;;;;;;;;;;;;;11.26;nan;99940.97;4934495;29;19970;-87
2023/03/27 14:33:05;;;;;;;;;;;;;;;11.46;nan;99937.84;4931743;29;19921;-88
2023/03/27 14:35:54;;;;;;;;;;;;;;;11.66;nan;99930.28;4927258;29;20431;-87
2023/03/27 14:38:38;;;;;;;;;;;;;;;11.55;nan;99931.53;4954119;29;19965;-87
2023/03/27 14:41:25;;;;;;;;;;;;;;;11.58;nan;99929.34;4946240;29;19992;-89
2023/03/27 14:44:12;;;;;;;;;;;;;;;11.83;nan;99921.22;4932954;29;19945;-84
2023/03/27 14:47:10;;;;;;;;;;;;;;;11.91;nan;99932.66;4927556;29;20268;-86
2023/03/27 14:50:00;;;;;;;;;;;;;;;11.84;nan;99920.22;4949264;29;20065;-86
2023/03/27 14:52:49;;;;;;;;;;;;;;;11.65;nan;99928.66;4937221;29;19921;-87
2023/03/27 14:55:33;;;;;;;;;;;;;;;11.56;nan;99925.28;4943426;29;20009;-88
2023/03/27 14:58:18;;;;;;;;;;;;;;;11.11;nan;99920.72;4951792;29;19937;-87
2023/03/27 15:01:03;;;;;;;;;;;;;;;10.82;nan;99918.81;4931310;29;20462;-88
2023/03/27 15:03:48;;;;;;;;;;;;;;;10.85;nan;99918.44;4948767;29;19993;-87
2023/03/27 15:06:35;;;;;;;;;;;;;;;11.01;nan;99922.75;4933137;29;20050;-88
2023/03/27 15:09:22;;;;;;;;;;;;;;;11.03;nan;99928.66;4931010;29;20024;-88
2023/03/27 15:12:08;;;;;;;;;;;;;;;11.54;nan;99924.63;4936666;29;20372;-89
2023/03/27 15:14:54;;;;;;;;;;;;;;;11.67;nan;99931.91;4944431;29;19966;-88